METAR Data
IDs: Format: Raw Decoded Include TAF

Data at: 1552 UTC 21 Sep 2018

KBDR 211452Z 17009KT 10SM FEW029 OVC042 21/14 A3024 RMK AO2 SLP240 T02110144 58009
KBDR 211352Z 17008KT 10SM FEW026 BKN041 OVC055 21/15 A3025 RMK AO2 SLP244 T02060150
KBDR 211252Z 16008KT 10SM SCT023 OVC046 20/15 A3027 RMK AO2 SLP250 T02000150
KBDR 211152Z 17009KT 10SM SCT019 BKN065 19/15 A3027 RMK AO2 SLP249 T01940150 10194 20194 50005
KBDR 211052Z 17009KT 10SM FEW019 SCT027 OVC060 19/15 A3027 RMK AO2 SLP250 T01940150
KBDR 210952Z AUTO 17007KT 10SM FEW019 SCT044 OVC060 19/16 A3027 RMK AO2 SLP249 T01940156
KBDR 210934Z AUTO 17007KT 10SM SCT018 SCT044 OVC060 19/16 A3026 RMK AO2 T01940156
KBDR 210852Z AUTO 16009KT 10SM SCT020 BKN025 OVC060 19/15 A3025 RMK AO2 SLP244 T01940150 55003
KBDR 210830Z AUTO 16008KT 10SM SCT020 BKN028 OVC044 19/15 A3024 RMK AO2 T01940150
KBDR 210818Z AUTO 16007KT 10SM SCT020 BKN031 OVC042 19/15 A3025 RMK AO2 T01940150
KBDR 210752Z AUTO 16007KT 10SM SCT018 BKN024 OVC037 19/16 A3025 RMK AO2 SLP242 T01940156
KBDR 210727Z AUTO 15008KT 10SM SCT019 BKN024 OVC049 19/16 A3025 RMK AO2 T01940156
KBDR 210652Z AUTO 16008KT 10SM FEW018 OVC037 19/16 A3025 RMK AO2 SLP244 T01940156
KBDR 210606Z AUTO 18008KT 10SM SCT017 BKN023 OVC039 19/16 A3026 RMK AO2 T01940156
KBDR 210552Z AUTO 16008KT 10SM FEW019 BKN036 OVC044 19/16 A3026 RMK AO2 SLP247 T01940156 10206 20194 58003
KBDR 210527Z AUTO 14009KT 10SM SCT017 SCT025 OVC036 19/16 A3026 RMK AO2 T01940156
KBDR 210452Z AUTO 15008KT 10SM BKN017 BKN023 OVC033 19/16 A3027 RMK AO2 SLP249 T01940156 402220172
KBDR 210411Z AUTO 14008KT 10SM BKN018 BKN032 OVC055 19/16 A3026 RMK AO2 T01940156
KBDR 210400Z AUTO 14010KT 10SM SCT018 BKN032 OVC055 19/16 A3026 RMK AO2 T01940156
KBDR 210352Z AUTO 15007KT 10SM SCT018 BKN024 OVC055 19/16 A3027 RMK AO2 SLP250 T01940156
KBDR 210349Z AUTO 15007KT 10SM BKN018 BKN024 OVC055 19/16 A3027 RMK AO2
KBDR 210326Z AUTO 15010KT 10SM SCT018 OVC031 19/16 A3027 RMK AO2 T01940156
KBDR 210302Z AUTO 15006KT 10SM SCT018 BKN029 OVC045 19/16 A3027 RMK AO2 T01940156
KBDR 210252Z AUTO 15009KT 10SM SCT020 OVC044 19/16 A3027 RMK AO2 SLP250 T01940156 51005
KBDR 210250Z AUTO 15009KT 10SM SCT020 OVC044 19/16 A3027 RMK AO2
KBDR 210216Z AUTO 15009KT 10SM SCT019 BKN024 OVC043 19/16 A3027 RMK AO2 T01940156
KBDR 210152Z 14008KT 10SM OVC043 19/16 A3027 RMK AO2 SLP249 T01940156
KBDR 210052Z 15008KT 10SM FEW020 SCT034 OVC048 20/16 A3026 RMK AO2 SLP245 T02000156
KBDR 202352Z 17006KT 10SM FEW024 BKN033 OVC050 21/16 A3023 RMK AO2 SLP238 T02110156 10222 20206 50006
KBDR 202252Z 18003KT 10SM OVC050 21/14 A3024 RMK AO2 SLP238 T02060139
KBDR 202152Z 18003KT 10SM SCT050 21/15 A3023 RMK AO2 SLP236 T02110150
KBDR 202052Z 17006KT 10SM OVC050 22/15 A3022 RMK AO2 SLP232 T02170150 55006
KBDR 201952Z 15008KT 10SM BKN049 22/14 A3021 RMK AO2 SLP230 T02170144
KBDR 201852Z 16006KT 10SM SCT043 BKN050 21/14 A3022 RMK AO2 SLP231 T02110144
KBDR 201752Z 09008KT 7SM FEW002 22/14 A3023 RMK AO2 SLP238 T02170139 10217 20172 58004
KBDR 201652Z 09008KT 10SM BKN055 22/13 A3024 RMK AO2 SLP239 T02170133
KBDR 201552Z VRB04KT 10SM OVC055 21/13 A3025 RMK AO2 SLP243 T02060128
KBDR 201452Z 04005KT 10SM OVC055 19/13 A3025 RMK AO2 SLP242 T01940128 51016
KBDR 201352Z 06005KT 10SM OVC055 19/13 A3023 RMK AO2 SLP236 T01890128
KBDR 201252Z 02006KT 10SM OVC055 18/13 A3022 RMK AO2 SLP233 T01780128
KBDR 201152Z 02007KT 10SM OVC055 17/13 A3020 RMK AO2 SLP226 T01720128 10183 20172 53025
KBDR 201052Z 04008KT 10SM OVC055 17/12 A3016 RMK AO2 SLP213 T01720122
KBDR 200952Z AUTO 03008KT 10SM SCT039 OVC060 17/13 A3014 RMK AO2 SLP207 T01720128
KBDR 200852Z AUTO 05008KT 10SM OVC035 17/12 A3013 RMK AO2 SLP201 T01720122 52005
KBDR 200752Z AUTO 05008KT 10SM SCT029 OVC037 17/13 A3012 RMK AO2 SLP198 T01720128
KBDR 200747Z AUTO 05008KT 10SM SCT029 BKN037 OVC060 18/13 A3012 RMK AO2
KBDR 200739Z AUTO 04010KT 10SM BKN029 BKN036 OVC060 18/13 A3012 RMK AO2 T01780128
KBDR 200724Z AUTO 05010KT 10SM FEW027 SCT044 OVC060 18/13 A3011 RMK AO2 T01780128
KBDR 200652Z AUTO 05010KT 10SM OVC025 18/13 A3011 RMK AO2 SLP196 T01780128
KBDR 200552Z AUTO 06011KT 10SM BKN021 BKN034 OVC060 18/14 A3010 RMK AO2 SLP193 T01830139 10217 20183 51008
KBDR 200525Z AUTO 07011KT 10SM SCT019 OVC034 18/14 A3010 RMK AO2 T01830139
KBDR 200452Z AUTO 06010KT 10SM OVC018 18/14 A3010 RMK AO2 SLP191 T01830144 402560183